sensor_id;sensor_type;location;lat;lon;timestamp;P1;durP1;ratioP1;P2;durP2;ratioP2
49235;SDS011;35067;48.134;8.378;2022-11-15T00:00:24;10.17;;;6.73;;
49235;SDS011;35067;48.134;8.378;2022-11-15T00:02:25;11.20;;;6.67;;
49235;SDS011;35067;48.134;8.378;2022-11-15T00:04:26;11.67;;;7.00;;
49235;SDS011;35067;48.134;8.378;2022-11-15T00:06:27;9.27;;;6.80;;
49235;SDS011;35067;48.134;8.378;2022-11-15T00:08:31;12.10;;;7.67;;
49235;SDS011;35067;48.134;8.378;2022-11-15T00:10:32;13.10;;;7.53;;
49235;SDS011;35067;48.134;8.378;2022-11-15T00:12:33;12.00;;;7.20;;
49235;SDS011;35067;48.134;8.378;2022-11-15T00:14:34;9.30;;;6.37;;
49235;SDS011;35067;48.134;8.378;2022-11-15T00:16:34;9.60;;;6.30;;
49235;SDS011;35067;48.134;8.378;2022-11-15T00:18:35;11.30;;;6.13;;
49235;SDS011;35067;48.134;8.378;2022-11-15T00:20:36;9.70;;;6.30;;
49235;SDS011;35067;48.134;8.378;2022-11-15T00:22:36;11.77;;;6.57;;
49235;SDS011;35067;48.134;8.378;2022-11-15T00:24:37;11.83;;;6.90;;
49235;SDS011;35067;48.134;8.378;2022-11-15T00:26:38;12.40;;;7.30;;
49235;SDS011;35067;48.134;8.378;2022-11-15T00:28:39;9.40;;;6.90;;
49235;SDS011;35067;48.134;8.378;2022-11-15T00:30:41;10.73;;;6.30;;
49235;SDS011;35067;48.134;8.378;2022-11-15T00:32:41;8.50;;;5.87;;
49235;SDS011;35067;48.134;8.378;2022-11-15T00:34:42;9.13;;;5.73;;
49235;SDS011;35067;48.134;8.378;2022-11-15T00:36:43;12.00;;;7.17;;
49235;SDS011;35067;48.134;8.378;2022-11-15T00:38:43;9.10;;;6.40;;
49235;SDS011;35067;48.134;8.378;2022-11-15T00:40:44;10.10;;;6.33;;
49235;SDS011;35067;48.134;8.378;2022-11-15T00:42:45;9.23;;;5.73;;
49235;SDS011;35067;48.134;8.378;2022-11-15T00:44:46;9.50;;;5.97;;
49235;SDS011;35067;48.134;8.378;2022-11-15T00:46:46;8.63;;;6.00;;
49235;SDS011;35067;48.134;8.378;2022-11-15T00:48:47;11.30;;;6.63;;
49235;SDS011;35067;48.134;8.378;2022-11-15T00:50:48;8.00;;;5.97;;
49235;SDS011;35067;48.134;8.378;2022-11-15T00:52:49;10.27;;;6.40;;
49235;SDS011;35067;48.134;8.378;2022-11-15T00:54:50;11.47;;;6.90;;
49235;SDS011;35067;48.134;8.378;2022-11-15T00:56:50;9.80;;;6.20;;
49235;SDS011;35067;48.134;8.378;2022-11-15T00:58:52;15.33;;;6.67;;
49235;SDS011;35067;48.134;8.378;2022-11-15T01:00:53;9.77;;;6.23;;
49235;SDS011;35067;48.134;8.378;2022-11-15T01:02:54;9.00;;;6.37;;
49235;SDS011;35067;48.134;8.378;2022-11-15T01:04:55;9.77;;;6.20;;
49235;SDS011;35067;48.134;8.378;2022-11-15T01:06:55;10.27;;;7.13;;
49235;SDS011;35067;48.134;8.378;2022-11-15T01:08:56;9.73;;;6.40;;
49235;SDS011;35067;48.134;8.378;2022-11-15T01:11:04;12.80;;;6.80;;
49235;SDS011;35067;48.134;8.378;2022-11-15T01:13:08;10.63;;;6.13;;
49235;SDS011;35067;48.134;8.378;2022-11-15T01:15:08;10.87;;;6.30;;
49235;SDS011;35067;48.134;8.378;2022-11-15T01:17:09;9.90;;;6.13;;
49235;SDS011;35067;48.134;8.378;2022-11-15T01:19:10;10.23;;;6.13;;
49235;SDS011;35067;48.134;8.378;2022-11-15T01:21:17;9.00;;;5.90;;
49235;SDS011;35067;48.134;8.378;2022-11-15T01:23:19;9.33;;;6.67;;
49235;SDS011;35067;48.134;8.378;2022-11-15T01:25:20;9.23;;;6.17;;
49235;SDS011;35067;48.134;8.378;2022-11-15T01:27:20;10.13;;;6.53;;
49235;SDS011;35067;48.134;8.378;2022-11-15T01:29:21;9.53;;;6.10;;
49235;SDS011;35067;48.134;8.378;2022-11-15T01:31:22;11.17;;;6.23;;
49235;SDS011;35067;48.134;8.378;2022-11-15T01:33:23;7.40;;;5.43;;
49235;SDS011;35067;48.134;8.378;2022-11-15T01:35:23;7.60;;;5.77;;
49235;SDS011;35067;48.134;8.378;2022-11-15T01:37:24;10.70;;;5.97;;
49235;SDS011;35067;48.134;8.378;2022-11-15T01:39:25;8.13;;;6.07;;
49235;SDS011;35067;48.134;8.378;2022-11-15T01:41:27;7.33;;;5.40;;
49235;SDS011;35067;48.134;8.378;2022-11-15T01:43:34;8.30;;;5.60;;
49235;SDS011;35067;48.134;8.378;2022-11-15T01:45:36;8.57;;;5.40;;
49235;SDS011;35067;48.134;8.378;2022-11-15T01:47:38;7.03;;;4.97;;
49235;SDS011;35067;48.134;8.378;2022-11-15T01:49:53;7.93;;;5.13;;
49235;SDS011;35067;48.134;8.378;2022-11-15T01:52:05;8.30;;;5.63;;
49235;SDS011;35067;48.134;8.378;2022-11-15T01:54:12;5.67;;;4.10;;
49235;SDS011;35067;48.134;8.378;2022-11-15T01:56:18;5.37;;;3.83;;
49235;SDS011;35067;48.134;8.378;2022-11-15T01:58:23;5.20;;;3.57;;
49235;SDS011;35067;48.134;8.378;2022-11-15T02:00:24;9.10;;;4.37;;
49235;SDS011;35067;48.134;8.378;2022-11-15T02:02:25;6.40;;;4.23;;
49235;SDS011;35067;48.134;8.378;2022-11-15T02:04:26;6.47;;;3.53;;
49235;SDS011;35067;48.134;8.378;2022-11-15T02:06:30;5.00;;;4.40;;
49235;SDS011;35067;48.134;8.378;2022-11-15T02:08:31;6.40;;;4.10;;
49235;SDS011;35067;48.134;8.378;2022-11-15T02:10:32;6.80;;;4.00;;
49235;SDS011;35067;48.134;8.378;2022-11-15T02:12:32;7.47;;;4.40;;
49235;SDS011;35067;48.134;8.378;2022-11-15T02:14:33;6.30;;;4.47;;
49235;SDS011;35067;48.134;8.378;2022-11-15T02:21:45;7.23;;;3.93;;
49235;SDS011;35067;48.134;8.378;2022-11-15T02:26:35;6.70;;;3.70;;
49235;SDS011;35067;48.134;8.378;2022-11-15T02:34:03;5.60;;;3.93;;
49235;SDS011;35067;48.134;8.378;2022-11-15T02:36:34;7.43;;;3.77;;
49235;SDS011;35067;48.134;8.378;2022-11-15T02:41:20;6.03;;;3.20;;
49235;SDS011;35067;48.134;8.378;2022-11-15T02:43:36;3.77;;;2.90;;
49235;SDS011;35067;48.134;8.378;2022-11-15T02:46:02;4.37;;;3.07;;
49235;SDS011;35067;48.134;8.378;2022-11-15T02:48:18;6.77;;;3.47;;
49235;SDS011;35067;48.134;8.378;2022-11-15T02:50:23;4.67;;;2.93;;
49235;SDS011;35067;48.134;8.378;2022-11-15T02:52:27;4.87;;;2.73;;
49235;SDS011;35067;48.134;8.378;2022-11-15T02:54:29;4.27;;;2.83;;
49235;SDS011;35067;48.134;8.378;2022-11-15T02:56:33;3.90;;;3.33;;
49235;SDS011;35067;48.134;8.378;2022-11-15T03:01:29;4.87;;;2.33;;
49235;SDS011;35067;48.134;8.378;2022-11-15T03:05:59;11.07;;;4.00;;
49235;SDS011;35067;48.134;8.378;2022-11-15T03:12:49;5.33;;;3.70;;
49235;SDS011;35067;48.134;8.378;2022-11-15T03:14:59;6.70;;;3.67;;
49235;SDS011;35067;48.134;8.378;2022-11-15T03:17:18;5.97;;;3.90;;
49235;SDS011;35067;48.134;8.378;2022-11-15T03:19:30;6.17;;;3.80;;
49235;SDS011;35067;48.134;8.378;2022-11-15T03:21:48;4.17;;;3.57;;
49235;SDS011;35067;48.134;8.378;2022-11-15T03:23:51;3.87;;;3.00;;
49235;SDS011;35067;48.134;8.378;2022-11-15T03:25:54;4.90;;;3.40;;
49235;SDS011;35067;48.134;8.378;2022-11-15T03:27:57;4.70;;;3.70;;
49235;SDS011;35067;48.134;8.378;2022-11-15T03:30:03;5.13;;;3.93;;
49235;SDS011;35067;48.134;8.378;2022-11-15T03:32:10;7.57;;;4.67;;
49235;SDS011;35067;48.134;8.378;2022-11-15T03:36:30;5.77;;;3.70;;
49235;SDS011;35067;48.134;8.378;2022-11-15T03:38:33;4.40;;;3.20;;
49235;SDS011;35067;48.134;8.378;2022-11-15T03:40:36;6.37;;;4.00;;
49235;SDS011;35067;48.134;8.378;2022-11-15T03:47:21;5.17;;;2.93;;
49235;SDS011;35067;48.134;8.378;2022-11-15T03:49:38;4.03;;;2.97;;
49235;SDS011;35067;48.134;8.378;2022-11-15T03:51:45;4.53;;;2.80;;
49235;SDS011;35067;48.134;8.378;2022-11-15T03:53:45;4.07;;;2.63;;
49235;SDS011;35067;48.134;8.378;2022-11-15T03:55:46;9.20;;;3.57;;
49235;SDS011;35067;48.134;8.378;2022-11-15T03:57:49;3.83;;;2.67;;
49235;SDS011;35067;48.134;8.378;2022-11-15T03:59:54;4.37;;;2.90;;
49235;SDS011;35067;48.134;8.378;2022-11-15T04:01:54;4.37;;;2.93;;
49235;SDS011;35067;48.134;8.378;2022-11-15T04:03:55;4.30;;;2.47;;
49235;SDS011;35067;48.134;8.378;2022-11-15T04:05:56;3.77;;;2.40;;
49235;SDS011;35067;48.134;8.378;2022-11-15T04:07:56;3.00;;;1.80;;
49235;SDS011;35067;48.134;8.378;2022-11-15T04:09:57;1.97;;;1.57;;
49235;SDS011;35067;48.134;8.378;2022-11-15T04:12:05;1.70;;;1.30;;
49235;SDS011;35067;48.134;8.378;2022-11-15T04:14:05;3.43;;;1.70;;
49235;SDS011;35067;48.134;8.378;2022-11-15T04:16:06;2.30;;;1.70;;
49235;SDS011;35067;48.134;8.378;2022-11-15T04:18:07;2.37;;;1.80;;
49235;SDS011;35067;48.134;8.378;2022-11-15T04:20:18;3.33;;;2.23;;
49235;SDS011;35067;48.134;8.378;2022-11-15T04:22:43;4.03;;;2.43;;
49235;SDS011;35067;48.134;8.378;2022-11-15T04:25:02;3.10;;;2.60;;
49235;SDS011;35067;48.134;8.378;2022-11-15T04:27:03;4.00;;;2.87;;
49235;SDS011;35067;48.134;8.378;2022-11-15T04:29:04;3.17;;;2.40;;
49235;SDS011;35067;48.134;8.378;2022-11-15T04:31:23;2.77;;;2.17;;
49235;SDS011;35067;48.134;8.378;2022-11-15T04:33:24;2.73;;;2.43;;
49235;SDS011;35067;48.134;8.378;2022-11-15T04:35:25;3.03;;;2.33;;
49235;SDS011;35067;48.134;8.378;2022-11-15T04:37:26;2.07;;;1.63;;
49235;SDS011;35067;48.134;8.378;2022-11-15T04:39:26;1.80;;;1.57;;
49235;SDS011;35067;48.134;8.378;2022-11-15T04:41:27;3.87;;;1.73;;
49235;SDS011;35067;48.134;8.378;2022-11-15T04:43:29;1.67;;;1.30;;
49235;SDS011;35067;48.134;8.378;2022-11-15T04:45:30;1.73;;;1.40;;
49235;SDS011;35067;48.134;8.378;2022-11-15T04:47:30;1.83;;;1.40;;
49235;SDS011;35067;48.134;8.378;2022-11-15T04:49:31;1.73;;;1.40;;
49235;SDS011;35067;48.134;8.378;2022-11-15T04:51:32;2.40;;;1.50;;
49235;SDS011;35067;48.134;8.378;2022-11-15T04:53:32;1.33;;;1.23;;
49235;SDS011;35067;48.134;8.378;2022-11-15T04:55:33;1.90;;;1.47;;
49235;SDS011;35067;48.134;8.378;2022-11-15T04:57:34;1.63;;;1.47;;
49235;SDS011;35067;48.134;8.378;2022-11-15T04:59:35;1.60;;;1.50;;
49235;SDS011;35067;48.134;8.378;2022-11-15T05:01:35;2.17;;;1.97;;
49235;SDS011;35067;48.134;8.378;2022-11-15T05:03:36;1.80;;;1.60;;
49235;SDS011;35067;48.134;8.378;2022-11-15T05:05:55;2.67;;;1.70;;
49235;SDS011;35067;48.134;8.378;2022-11-15T05:07:58;2.10;;;1.50;;
49235;SDS011;35067;48.134;8.378;2022-11-15T05:09:58;3.27;;;1.93;;
49235;SDS011;35067;48.134;8.378;2022-11-15T05:11:59;1.90;;;1.70;;
49235;SDS011;35067;48.134;8.378;2022-11-15T05:14:00;4.07;;;2.07;;
49235;SDS011;35067;48.134;8.378;2022-11-15T05:16:00;2.83;;;2.03;;
49235;SDS011;35067;48.134;8.378;2022-11-15T05:18:01;2.73;;;2.00;;
49235;SDS011;35067;48.134;8.378;2022-11-15T05:20:02;3.90;;;2.20;;
49235;SDS011;35067;48.134;8.378;2022-11-15T05:22:02;3.00;;;2.13;;
49235;SDS011;35067;48.134;8.378;2022-11-15T05:24:03;4.57;;;2.60;;
49235;SDS011;35067;48.134;8.378;2022-11-15T05:26:07;2.53;;;1.93;;
49235;SDS011;35067;48.134;8.378;2022-11-15T05:28:09;2.70;;;2.30;;
49235;SDS011;35067;48.134;8.378;2022-11-15T05:30:10;2.63;;;1.80;;
49235;SDS011;35067;48.134;8.378;2022-11-15T05:32:11;4.53;;;1.90;;
49235;SDS011;35067;48.134;8.378;2022-11-15T05:34:12;3.03;;;1.60;;
49235;SDS011;35067;48.134;8.378;2022-11-15T05:36:17;2.83;;;1.70;;
49235;SDS011;35067;48.134;8.378;2022-11-15T05:38:42;2.20;;;1.40;;
49235;SDS011;35067;48.134;8.378;2022-11-15T05:40:42;4.60;;;2.20;;
49235;SDS011;35067;48.134;8.378;2022-11-15T05:42:44;2.60;;;2.40;;
49235;SDS011;35067;48.134;8.378;2022-11-15T05:44:47;3.30;;;2.07;;
49235;SDS011;35067;48.134;8.378;2022-11-15T05:46:49;4.37;;;1.60;;
49235;SDS011;35067;48.134;8.378;2022-11-15T05:48:53;2.33;;;1.93;;
49235;SDS011;35067;48.134;8.378;2022-11-15T05:50:55;3.20;;;2.33;;
49235;SDS011;35067;48.134;8.378;2022-11-15T05:52:57;3.27;;;2.73;;
49235;SDS011;35067;48.134;8.378;2022-11-15T05:54:57;5.00;;;2.60;;
49235;SDS011;35067;48.134;8.378;2022-11-15T05:56:59;4.67;;;2.70;;
49235;SDS011;35067;48.134;8.378;2022-11-15T05:59:00;3.87;;;2.60;;
49235;SDS011;35067;48.134;8.378;2022-11-15T06:01:01;2.73;;;2.10;;
49235;SDS011;35067;48.134;8.378;2022-11-15T06:03:01;4.33;;;1.83;;
49235;SDS011;35067;48.134;8.378;2022-11-15T06:05:02;2.80;;;1.90;;
49235;SDS011;35067;48.134;8.378;2022-11-15T06:07:04;2.10;;;1.90;;
49235;SDS011;35067;48.134;8.378;2022-11-15T06:09:04;1.90;;;1.30;;
49235;SDS011;35067;48.134;8.378;2022-11-15T06:11:05;2.00;;;1.43;;
49235;SDS011;35067;48.134;8.378;2022-11-15T06:13:07;1.20;;;1.10;;
49235;SDS011;35067;48.134;8.378;2022-11-15T06:15:07;2.40;;;1.30;;
49235;SDS011;35067;48.134;8.378;2022-11-15T06:17:08;2.30;;;1.40;;
49235;SDS011;35067;48.134;8.378;2022-11-15T06:19:09;2.10;;;1.73;;
49235;SDS011;35067;48.134;8.378;2022-11-15T06:21:10;2.97;;;2.10;;
49235;SDS011;35067;48.134;8.378;2022-11-15T06:23:10;2.53;;;1.90;;
49235;SDS011;35067;48.134;8.378;2022-11-15T06:25:11;2.80;;;1.93;;
49235;SDS011;35067;48.134;8.378;2022-11-15T06:27:12;2.83;;;1.77;;
49235;SDS011;35067;48.134;8.378;2022-11-15T06:29:13;1.70;;;1.60;;
49235;SDS011;35067;48.134;8.378;2022-11-15T06:31:13;1.93;;;1.80;;
49235;SDS011;35067;48.134;8.378;2022-11-15T06:33:14;2.57;;;1.60;;
49235;SDS011;35067;48.134;8.378;2022-11-15T06:35:15;2.83;;;2.17;;
49235;SDS011;35067;48.134;8.378;2022-11-15T06:37:16;2.53;;;1.80;;
49235;SDS011;35067;48.134;8.378;2022-11-15T06:39:16;3.30;;;2.50;;
49235;SDS011;35067;48.134;8.378;2022-11-15T06:41:17;3.37;;;2.20;;
49235;SDS011;35067;48.134;8.378;2022-11-15T06:43:18;3.47;;;2.30;;
49235;SDS011;35067;48.134;8.378;2022-11-15T06:45:18;5.07;;;2.50;;
49235;SDS011;35067;48.134;8.378;2022-11-15T06:47:19;3.23;;;2.10;;
49235;SDS011;35067;48.134;8.378;2022-11-15T06:49:20;3.57;;;2.30;;
49235;SDS011;35067;48.134;8.378;2022-11-15T06:51:20;5.30;;;2.60;;
49235;SDS011;35067;48.134;8.378;2022-11-15T06:53:21;3.20;;;2.20;;
49235;SDS011;35067;48.134;8.378;2022-11-15T06:55:23;4.97;;;2.57;;
49235;SDS011;35067;48.134;8.378;2022-11-15T06:57:23;3.47;;;2.60;;
49235;SDS011;35067;48.134;8.378;2022-11-15T06:59:24;4.73;;;2.97;;
49235;SDS011;35067;48.134;8.378;2022-11-15T07:01:24;4.50;;;2.83;;
49235;SDS011;35067;48.134;8.378;2022-11-15T07:03:25;6.57;;;3.57;;
49235;SDS011;35067;48.134;8.378;2022-11-15T07:05:27;6.60;;;3.87;;
49235;SDS011;35067;48.134;8.378;2022-11-15T07:07:27;5.77;;;4.40;;
49235;SDS011;35067;48.134;8.378;2022-11-15T07:09:28;6.97;;;4.73;;
49235;SDS011;35067;48.134;8.378;2022-11-15T07:11:29;6.17;;;4.03;;
49235;SDS011;35067;48.134;8.378;2022-11-15T07:13:30;6.00;;;4.23;;
49235;SDS011;35067;48.134;8.378;2022-11-15T07:15:35;6.17;;;4.13;;
49235;SDS011;35067;48.134;8.378;2022-11-15T07:17:36;7.73;;;4.17;;
49235;SDS011;35067;48.134;8.378;2022-11-15T07:19:37;6.13;;;4.13;;
49235;SDS011;35067;48.134;8.378;2022-11-15T07:21:37;5.90;;;3.97;;
49235;SDS011;35067;48.134;8.378;2022-11-15T07:23:38;6.30;;;4.00;;
49235;SDS011;35067;48.134;8.378;2022-11-15T07:25:39;4.97;;;3.63;;
49235;SDS011;35067;48.134;8.378;2022-11-15T07:27:40;6.10;;;4.03;;
49235;SDS011;35067;48.134;8.378;2022-11-15T07:29:41;6.80;;;4.83;;
49235;SDS011;35067;48.134;8.378;2022-11-15T07:31:41;6.40;;;3.60;;
49235;SDS011;35067;48.134;8.378;2022-11-15T07:33:42;7.53;;;4.00;;
49235;SDS011;35067;48.134;8.378;2022-11-15T07:35:43;5.83;;;4.17;;
49235;SDS011;35067;48.134;8.378;2022-11-15T07:37:52;6.27;;;4.00;;
49235;SDS011;35067;48.134;8.378;2022-11-15T07:39:58;5.70;;;3.87;;
49235;SDS011;35067;48.134;8.378;2022-11-15T07:41:59;4.73;;;3.80;;
49235;SDS011;35067;48.134;8.378;2022-11-15T07:44:18;6.93;;;3.70;;
49235;SDS011;35067;48.134;8.378;2022-11-15T07:46:18;5.40;;;3.70;;
49235;SDS011;35067;48.134;8.378;2022-11-15T07:48:19;5.03;;;3.67;;
49235;SDS011;35067;48.134;8.378;2022-11-15T07:50:20;6.20;;;4.07;;
49235;SDS011;35067;48.134;8.378;2022-11-15T07:52:21;7.40;;;4.27;;
49235;SDS011;35067;48.134;8.378;2022-11-15T07:54:21;7.00;;;4.50;;
49235;SDS011;35067;48.134;8.378;2022-11-15T07:56:22;7.43;;;4.40;;
49235;SDS011;35067;48.134;8.378;2022-11-15T07:58:23;7.60;;;4.10;;
49235;SDS011;35067;48.134;8.378;2022-11-15T08:00:23;6.43;;;4.10;;
49235;SDS011;35067;48.134;8.378;2022-11-15T08:02:24;8.70;;;4.67;;
49235;SDS011;35067;48.134;8.378;2022-11-15T08:04:25;8.50;;;4.73;;
49235;SDS011;35067;48.134;8.378;2022-11-15T08:06:25;7.90;;;4.53;;
49235;SDS011;35067;48.134;8.378;2022-11-15T08:08:26;6.73;;;4.70;;
49235;SDS011;35067;48.134;8.378;2022-11-15T08:10:27;7.90;;;5.37;;
49235;SDS011;35067;48.134;8.378;2022-11-15T08:12:28;6.63;;;4.93;;
49235;SDS011;35067;48.134;8.378;2022-11-15T08:14:29;7.67;;;4.93;;
49235;SDS011;35067;48.134;8.378;2022-11-15T08:16:30;5.97;;;4.83;;
49235;SDS011;35067;48.134;8.378;2022-11-15T08:18:30;7.07;;;4.47;;
49235;SDS011;35067;48.134;8.378;2022-11-15T08:20:31;6.63;;;4.97;;
49235;SDS011;35067;48.134;8.378;2022-11-15T08:22:34;5.30;;;4.20;;
49235;SDS011;35067;48.134;8.378;2022-11-15T08:24:34;6.83;;;4.20;;
49235;SDS011;35067;48.134;8.378;2022-11-15T08:26:35;6.53;;;4.17;;
49235;SDS011;35067;48.134;8.378;2022-11-15T08:28:36;6.73;;;4.70;;
49235;SDS011;35067;48.134;8.378;2022-11-15T08:30:37;7.90;;;4.30;;
49235;SDS011;35067;48.134;8.378;2022-11-15T08:32:41;13.67;;;8.90;;
49235;SDS011;35067;48.134;8.378;2022-11-15T08:34:42;11.30;;;7.60;;
49235;SDS011;35067;48.134;8.378;2022-11-15T08:36:43;14.00;;;8.80;;
49235;SDS011;35067;48.134;8.378;2022-11-15T08:38:43;10.87;;;6.20;;
49235;SDS011;35067;48.134;8.378;2022-11-15T08:40:44;7.57;;;5.87;;
49235;SDS011;35067;48.134;8.378;2022-11-15T08:42:45;9.90;;;6.90;;
49235;SDS011;35067;48.134;8.378;2022-11-15T08:44:47;10.00;;;6.83;;
49235;SDS011;35067;48.134;8.378;2022-11-15T08:46:47;8.73;;;6.20;;
49235;SDS011;35067;48.134;8.378;2022-11-15T08:48:48;10.17;;;6.30;;
49235;SDS011;35067;48.134;8.378;2022-11-15T08:50:49;9.77;;;6.40;;
49235;SDS011;35067;48.134;8.378;2022-11-15T08:52:55;9.20;;;5.93;;
49235;SDS011;35067;48.134;8.378;2022-11-15T08:54:56;6.63;;;4.90;;
49235;SDS011;35067;48.134;8.378;2022-11-15T08:56:56;7.77;;;5.50;;
49235;SDS011;35067;48.134;8.378;2022-11-15T08:58:57;6.57;;;4.60;;
49235;SDS011;35067;48.134;8.378;2022-11-15T09:00:58;6.30;;;4.80;;
49235;SDS011;35067;48.134;8.378;2022-11-15T09:02:58;8.60;;;5.33;;
49235;SDS011;35067;48.134;8.378;2022-11-15T09:04:59;10.00;;;6.47;;
49235;SDS011;35067;48.134;8.378;2022-11-15T09:07:00;9.00;;;5.43;;
49235;SDS011;35067;48.134;8.378;2022-11-15T09:09:01;9.93;;;6.30;;
49235;SDS011;35067;48.134;8.378;2022-11-15T09:11:03;8.87;;;7.03;;
49235;SDS011;35067;48.134;8.378;2022-11-15T09:13:05;7.53;;;5.90;;
49235;SDS011;35067;48.134;8.378;2022-11-15T09:15:06;7.93;;;5.83;;
49235;SDS011;35067;48.134;8.378;2022-11-15T09:17:08;6.23;;;5.07;;
49235;SDS011;35067;48.134;8.378;2022-11-15T09:19:08;6.47;;;4.43;;
49235;SDS011;35067;48.134;8.378;2022-11-15T09:21:09;7.27;;;3.97;;
49235;SDS011;35067;48.134;8.378;2022-11-15T09:23:10;7.23;;;3.77;;
49235;SDS011;35067;48.134;8.378;2022-11-15T09:25:11;4.97;;;3.77;;
49235;SDS011;35067;48.134;8.378;2022-11-15T09:27:12;6.97;;;3.80;;
49235;SDS011;35067;48.134;8.378;2022-11-15T09:29:14;7.47;;;4.30;;
49235;SDS011;35067;48.134;8.378;2022-11-15T09:31:15;6.20;;;4.60;;
49235;SDS011;35067;48.134;8.378;2022-11-15T09:33:17;6.63;;;4.93;;
49235;SDS011;35067;48.134;8.378;2022-11-15T09:35:17;7.50;;;4.80;;
49235;SDS011;35067;48.134;8.378;2022-11-15T09:37:18;7.97;;;5.27;;
49235;SDS011;35067;48.134;8.378;2022-11-15T09:39:19;5.97;;;4.43;;
49235;SDS011;35067;48.134;8.378;2022-11-15T09:41:30;8.23;;;4.97;;
49235;SDS011;35067;48.134;8.378;2022-11-15T09:46:32;6.97;;;4.83;;
49235;SDS011;35067;48.134;8.378;2022-11-15T09:50:53;9.03;;;6.63;;
49235;SDS011;35067;48.134;8.378;2022-11-15T09:53:00;8.13;;;5.20;;
49235;SDS011;35067;48.134;8.378;2022-11-15T09:55:01;5.27;;;4.53;;
49235;SDS011;35067;48.134;8.378;2022-11-15T09:57:03;5.83;;;3.93;;
49235;SDS011;35067;48.134;8.378;2022-11-15T10:04:07;3.73;;;2.77;;
49235;SDS011;35067;48.134;8.378;2022-11-15T10:06:10;4.23;;;2.87;;
49235;SDS011;35067;48.134;8.378;2022-11-15T10:11:01;2.50;;;1.87;;
49235;SDS011;35067;48.134;8.378;2022-11-15T10:13:13;1.70;;;1.00;;
49235;SDS011;35067;48.134;8.378;2022-11-15T10:15:20;2.10;;;1.90;;
49235;SDS011;35067;48.134;8.378;2022-11-15T10:17:36;2.97;;;1.93;;
49235;SDS011;35067;48.134;8.378;2022-11-15T10:22:16;1.30;;;1.10;;
49235;SDS011;35067;48.134;8.378;2022-11-15T10:24:28;2.27;;;1.40;;
49235;SDS011;35067;48.134;8.378;2022-11-15T10:26:37;2.03;;;1.37;;
49235;SDS011;35067;48.134;8.378;2022-11-15T10:28:38;1.40;;;1.30;;
49235;SDS011;35067;48.134;8.378;2022-11-15T10:30:40;4.20;;;1.63;;
49235;SDS011;35067;48.134;8.378;2022-11-15T10:32:44;1.90;;;1.10;;
49235;SDS011;35067;48.134;8.378;2022-11-15T10:34:47;2.20;;;1.17;;
49235;SDS011;35067;48.134;8.378;2022-11-15T10:36:56;1.23;;;0.90;;
49235;SDS011;35067;48.134;8.378;2022-11-15T10:39:00;3.00;;;1.30;;
49235;SDS011;35067;48.134;8.378;2022-11-15T10:41:06;1.97;;;1.20;;
49235;SDS011;35067;48.134;8.378;2022-11-15T10:43:17;2.97;;;1.30;;
49235;SDS011;35067;48.134;8.378;2022-11-15T10:45:23;1.63;;;1.10;;
49235;SDS011;35067;48.134;8.378;2022-11-15T10:47:30;1.10;;;0.80;;
49235;SDS011;35067;48.134;8.378;2022-11-15T10:49:32;1.00;;;0.60;;
49235;SDS011;35067;48.134;8.378;2022-11-15T10:51:34;0.73;;;0.70;;
49235;SDS011;35067;48.134;8.378;2022-11-15T10:53:52;4.67;;;2.23;;
49235;SDS011;35067;48.134;8.378;2022-11-15T10:55:55;3.30;;;3.10;;
49235;SDS011;35067;48.134;8.378;2022-11-15T10:58:04;0.97;;;0.80;;
49235;SDS011;35067;48.134;8.378;2022-11-15T11:00:39;2.00;;;1.10;;
49235;SDS011;35067;48.134;8.378;2022-11-15T11:03:20;1.07;;;0.80;;
49235;SDS011;35067;48.134;8.378;2022-11-15T11:05:36;1.80;;;0.80;;
49235;SDS011;35067;48.134;8.378;2022-11-15T11:07:40;1.17;;;0.70;;
49235;SDS011;35067;48.134;8.378;2022-11-15T11:09:41;0.80;;;0.80;;
49235;SDS011;35067;48.134;8.378;2022-11-15T11:11:49;1.40;;;1.30;;
49235;SDS011;35067;48.134;8.378;2022-11-15T11:13:51;1.73;;;1.27;;
49235;SDS011;35067;48.134;8.378;2022-11-15T11:16:27;0.60;;;0.60;;
49235;SDS011;35067;48.134;8.378;2022-11-15T11:18:27;1.70;;;1.50;;
49235;SDS011;35067;48.134;8.378;2022-11-15T11:23:01;1.23;;;1.13;;
49235;SDS011;35067;48.134;8.378;2022-11-15T11:25:33;0.70;;;0.70;;
49235;SDS011;35067;48.134;8.378;2022-11-15T11:27:36;0.87;;;0.87;;
49235;SDS011;35067;48.134;8.378;2022-11-15T11:30:05;2.10;;;1.10;;
49235;SDS011;35067;48.134;8.378;2022-11-15T11:41:38;3.73;;;3.03;;
49235;SDS011;35067;48.134;8.378;2022-11-15T11:46:31;1.33;;;0.73;;
49235;SDS011;35067;48.134;8.378;2022-11-15T11:48:44;1.00;;;0.70;;
49235;SDS011;35067;48.134;8.378;2022-11-15T11:50:48;1.80;;;1.00;;
49235;SDS011;35067;48.134;8.378;2022-11-15T11:57:25;1.50;;;0.80;;
49235;SDS011;35067;48.134;8.378;2022-11-15T12:01:53;1.27;;;0.80;;
49235;SDS011;35067;48.134;8.378;2022-11-15T12:03:55;0.80;;;0.80;;
49235;SDS011;35067;48.134;8.378;2022-11-15T12:08:53;2.23;;;1.47;;
49235;SDS011;35067;48.134;8.378;2022-11-15T12:11:20;3.27;;;2.17;;
49235;SDS011;35067;48.134;8.378;2022-11-15T12:13:50;1.20;;;1.07;;
49235;SDS011;35067;48.134;8.378;2022-11-15T12:16:02;2.57;;;1.07;;
49235;SDS011;35067;48.134;8.378;2022-11-15T12:18:15;1.47;;;0.90;;
49235;SDS011;35067;48.134;8.378;2022-11-15T12:20:21;1.53;;;0.90;;
49235;SDS011;35067;48.134;8.378;2022-11-15T12:22:41;1.37;;;1.20;;
49235;SDS011;35067;48.134;8.378;2022-11-15T12:24:57;2.13;;;1.60;;
49235;SDS011;35067;48.134;8.378;2022-11-15T12:27:16;2.80;;;2.07;;
49235;SDS011;35067;48.134;8.378;2022-11-15T12:29:43;4.63;;;3.67;;
49235;SDS011;35067;48.134;8.378;2022-11-15T12:31:50;4.43;;;3.27;;
49235;SDS011;35067;48.134;8.378;2022-11-15T12:33:57;4.83;;;2.83;;
49235;SDS011;35067;48.134;8.378;2022-11-15T12:36:43;1.57;;;1.47;;
49235;SDS011;35067;48.134;8.378;2022-11-15T12:45:28;3.50;;;1.63;;
49235;SDS011;35067;48.134;8.378;2022-11-15T12:47:37;5.57;;;4.87;;
49235;SDS011;35067;48.134;8.378;2022-11-15T12:53:42;2.03;;;1.67;;
49235;SDS011;35067;48.134;8.378;2022-11-15T12:55:42;2.10;;;1.90;;
49235;SDS011;35067;48.134;8.378;2022-11-15T12:57:43;3.00;;;2.40;;
49235;SDS011;35067;48.134;8.378;2022-11-15T12:59:54;1.60;;;1.50;;
49235;SDS011;35067;48.134;8.378;2022-11-15T13:01:59;2.47;;;1.40;;
49235;SDS011;35067;48.134;8.378;2022-11-15T13:04:13;3.43;;;1.90;;
49235;SDS011;35067;48.134;8.378;2022-11-15T13:06:40;1.70;;;1.60;;
49235;SDS011;35067;48.134;8.378;2022-11-15T13:09:03;2.23;;;1.83;;
49235;SDS011;35067;48.134;8.378;2022-11-15T13:11:42;2.20;;;1.00;;
49235;SDS011;35067;48.134;8.378;2022-11-15T13:13:46;3.67;;;1.57;;
49235;SDS011;35067;48.134;8.378;2022-11-15T13:15:54;1.47;;;1.37;;
49235;SDS011;35067;48.134;8.378;2022-11-15T13:17:58;1.00;;;1.00;;
49235;SDS011;35067;48.134;8.378;2022-11-15T13:20:26;1.00;;;0.90;;
49235;SDS011;35067;48.134;8.378;2022-11-15T13:22:38;1.77;;;1.50;;
49235;SDS011;35067;48.134;8.378;2022-11-15T13:25:04;1.93;;;1.50;;
49235;SDS011;35067;48.134;8.378;2022-11-15T13:27:40;4.73;;;3.27;;
49235;SDS011;35067;48.134;8.378;2022-11-15T13:29:42;1.97;;;1.77;;
49235;SDS011;35067;48.134;8.378;2022-11-15T13:31:44;2.33;;;1.50;;
49235;SDS011;35067;48.134;8.378;2022-11-15T13:33:46;1.33;;;1.23;;
49235;SDS011;35067;48.134;8.378;2022-11-15T13:35:48;1.50;;;1.40;;
49235;SDS011;35067;48.134;8.378;2022-11-15T13:37:52;1.40;;;1.20;;
49235;SDS011;35067;48.134;8.378;2022-11-15T13:39:57;1.70;;;1.60;;
49235;SDS011;35067;48.134;8.378;2022-11-15T13:42:34;2.23;;;1.80;;
49235;SDS011;35067;48.134;8.378;2022-11-15T13:44:35;2.67;;;1.93;;
49235;SDS011;35067;48.134;8.378;2022-11-15T13:46:35;2.30;;;2.10;;
49235;SDS011;35067;48.134;8.378;2022-11-15T13:48:36;2.00;;;1.80;;
49235;SDS011;35067;48.134;8.378;2022-11-15T13:50:37;2.67;;;1.97;;
49235;SDS011;35067;48.134;8.378;2022-11-15T13:52:40;2.73;;;1.60;;